Patuxent River Naval Air Station/Trapnell Field Aiport


Codes: KNHK/
Name: Patuxent River Naval Air Station/Trapnell Field Aiport
City: Patuxent River
Country: United States
Elevation: 39 ft.

Photos at Patuxent River Naval Air Station/Trapnell Field Aiport


   Photos courtesy of SpottingLog. You can add your own sightings and photos by signing up for a free trial today.



No photos found.

Weather at Patuxent River Naval Air Station/Trapnell Field Aiport


Time (UTC)DescriptionTempratureWindCloud coverageVisibilityPressureHumidity
16-Jun-2024 09:00Clear Sky17°C2 mph, SE0%10000m1020hPa92%
16-Jun-2024 12:00Clear Sky19°C0 mph, NW9%10000m1021hPa85%
16-Jun-2024 15:00Broken Clouds23°C4 mph, SE67%10000m1022hPa69%
16-Jun-2024 18:00Overcast Clouds26°C9 mph, SE98%10000m1022hPa48%
16-Jun-2024 21:00Broken Clouds26°C11 mph, SE83%10000m1022hPa49%
17-Jun-2024 00:00Overcast Clouds23°C13 mph, SE94%10000m1021hPa62%
17-Jun-2024 03:00Scattered Clouds22°C13 mph, S37%10000m1022hPa62%
17-Jun-2024 06:00Scattered Clouds21°C11 mph, S49%10000m1022hPa66%
17-Jun-2024 09:00Broken Clouds20°C9 mph, S56%10000m1023hPa73%
17-Jun-2024 12:00Scattered Clouds22°C11 mph, S31%10000m1023hPa70%
17-Jun-2024 15:00Few Clouds26°C11 mph, S13%10000m1023hPa54%
17-Jun-2024 18:00Few Clouds28°C13 mph, SE21%10000m1022hPa54%
17-Jun-2024 21:00Few Clouds27°C18 mph, SE14%10000m1021hPa56%
18-Jun-2024 00:00Few Clouds24°C16 mph, SE14%10000m1021hPa64%
18-Jun-2024 03:00Scattered Clouds23°C16 mph, S25%10000m1022hPa71%
18-Jun-2024 06:00Few Clouds22°C11 mph, S12%10000m1023hPa74%
18-Jun-2024 09:00Clear Sky21°C11 mph, SW1%10000m1024hPa78%
18-Jun-2024 12:00Clear Sky22°C9 mph, SW1%10000m1025hPa71%
18-Jun-2024 15:00Clear Sky26°C9 mph, S1%10000m1025hPa57%
18-Jun-2024 18:00Clear Sky28°C11 mph, SE1%10000m1024hPa52%
18-Jun-2024 21:00Clear Sky27°C13 mph, SE1%10000m1024hPa56%
19-Jun-2024 00:00Clear Sky24°C13 mph, SE2%10000m1025hPa63%
19-Jun-2024 03:00Few Clouds23°C13 mph, SE21%10000m1026hPa74%
19-Jun-2024 06:00Scattered Clouds22°C9 mph, S42%10000m1026hPa80%
19-Jun-2024 09:00Few Clouds20°C4 mph, SW21%10000m1026hPa88%
19-Jun-2024 12:00Few Clouds23°C2 mph, S20%10000m1028hPa75%
19-Jun-2024 15:00Few Clouds26°C7 mph, SE24%10000m1029hPa62%
19-Jun-2024 18:00Few Clouds27°C9 mph, SE14%10000m1028hPa52%
19-Jun-2024 21:00Clear Sky27°C11 mph, SE0%10000m1026hPa59%
20-Jun-2024 00:00Clear Sky24°C11 mph, SE0%10000m1027hPa69%
20-Jun-2024 03:00Clear Sky22°C9 mph, SE0%10000m1027hPa75%
20-Jun-2024 06:00Clear Sky21°C7 mph, S0%10000m1027hPa84%
20-Jun-2024 09:00Clear Sky20°C4 mph, S0%10000m1027hPa87%
20-Jun-2024 12:00Clear Sky23°C2 mph, SW0%10000m1029hPa75%
20-Jun-2024 15:00Clear Sky26°C7 mph, S0%10000m1028hPa59%
20-Jun-2024 18:00Clear Sky28°C9 mph, SE0%10000m1027hPa49%
20-Jun-2024 21:00Clear Sky27°C11 mph, SE2%10000m1026hPa52%
21-Jun-2024 00:00Clear Sky25°C11 mph, SE2%10000m1025hPa69%
21-Jun-2024 03:00Clear Sky23°C11 mph, S1%10000m1026hPa78%
21-Jun-2024 06:00Clear Sky22°C9 mph, SW0%10000m1025hPa87%